Time;durP1;ratioP1;P1;durP2;ratioP2;P2;SDS_P1;SDS_P2;PMS_P1;PMS_P2;Temp;Humidity;BMP_temperature;BMP_pressure;BME280_temperature;BME280_humidity;BME280_pressure;Samples;Min_cycle;Max_cycle;Signal;HPM_P1;HPM_P2
2022/05/17 00:07:02;;;;;;;4.63;2.27;;;14.10;99.90;;;;;;20930007;28;20036;-79
2022/05/17 00:17:04;;;;;;;8.48;3.22;;;14.50;99.90;;;;;;20928129;28;20033;-76
2022/05/17 00:27:05;;;;;;;8.25;2.70;;;14.60;99.90;;;;;;20929319;28;20029;-78
2022/05/17 00:37:06;;;;;;;7.27;2.60;;;14.10;99.90;;;;;;20927537;28;20116;-78
2022/05/17 00:47:13;;;;;;;4.40;2.33;;;13.90;99.90;;;;;;20927230;28;20283;-78
2022/05/17 00:57:26;;;;;;;4.10;2.40;;;13.50;99.90;;;;;;20926288;28;20467;-79
2022/05/17 01:07:31;;;;;;;11.35;3.10;;;13.50;99.90;;;;;;20926397;28;20025;-77
2022/05/17 01:17:36;;;;;;;5.85;2.50;;;13.40;99.90;;;;;;20926990;28;20399;-78
2022/05/17 01:27:43;;;;;;;12.25;2.53;;;13.10;99.90;;;;;;20939094;28;20025;-78
2022/05/17 01:37:45;;;;;;;7.38;2.65;;;13.10;99.90;;;;;;20934301;28;20029;-77
2022/05/17 01:47:46;;;;;;;4.80;2.60;;;13.10;99.90;;;;;;20920375;28;20450;-78
2022/05/17 01:57:47;;;;;;;9.87;2.73;;;13.60;99.90;;;;;;20919684;28;20068;-79
2022/05/17 02:07:50;;;;;;;5.60;2.87;;;13.70;99.90;;;;;;20920290;28;20029;-79
2022/05/17 02:17:52;;;;;;;13.13;2.88;;;13.80;99.90;;;;;;20919887;28;20025;-79
2022/05/17 02:27:53;;;;;;;;;;;13.80;99.90;;;;;;20918514;28;20040;-79
2022/05/17 02:37:53;;;;;;;6.82;2.63;;;13.70;99.90;;;;;;20915163;28;19909;-77
2022/05/17 02:47:54;;;;;;;7.50;2.50;;;13.70;99.90;;;;;;20917946;28;20032;-79
2022/05/17 02:57:56;;;;;;;9.17;3.03;;;13.70;99.90;;;;;;20858616;23;20030;-75
2022/05/17 03:07:57;;;;;;;7.18;3.00;;;13.50;99.90;;;;;;20742463;28;20030;-76
2022/05/17 03:17:58;;;;;;;6.47;2.80;;;13.40;99.90;;;;;;20742083;28;20393;-75
2022/05/17 03:27:59;;;;;;;6.23;3.30;;;13.40;99.90;;;;;;20741706;28;20101;-76
2022/05/17 03:38:00;;;;;;;7.43;3.47;;;13.40;99.90;;;;;;20741588;28;20112;-76
2022/05/17 03:48:01;;;;;;;12.70;3.73;;;13.20;99.90;;;;;;20748736;28;20092;-74
2022/05/17 03:58:02;;;;;;;6.93;3.47;;;13.20;99.90;;;;;;20747650;28;20026;-75
2022/05/17 04:08:09;;;;;;;12.50;3.20;;;13.20;99.90;;;;;;20691280;28;20116;-74
2022/05/17 04:18:10;;;;;;;6.85;3.85;;;13.30;99.90;;;;;;20787333;28;20404;-75
2022/05/17 04:28:11;;;;;;;10.83;3.93;;;13.20;99.90;;;;;;20735698;28;20117;-75
2022/05/17 04:38:11;;;;;;;8.43;3.53;;;13.30;99.90;;;;;;20752190;28;20056;-75
2022/05/17 04:48:13;;;;;;;10.50;3.40;;;13.50;99.90;;;;;;20751752;28;20034;-75
2022/05/17 04:58:13;;;;;;;6.40;3.83;;;13.90;99.90;;;;;;20750250;28;20033;-75
2022/05/17 05:08:14;;;;;;;6.93;3.30;;;14.20;99.90;;;;;;20749630;28;20655;-74
2022/05/17 05:18:15;;;;;;;6.03;3.13;;;14.60;99.90;;;;;;20731496;28;20038;-74
2022/05/17 05:28:16;;;;;;;6.90;2.83;;;15.00;99.90;;;;;;20747992;28;20105;-75
2022/05/17 05:38:17;;;;;;;9.40;3.40;;;15.50;99.90;;;;;;20747308;28;20113;-75
2022/05/17 05:48:18;;;;;;;7.40;3.03;;;15.60;99.90;;;;;;20728863;28;20084;-74
2022/05/17 05:58:19;;;;;;;15.27;3.50;;;15.60;99.90;;;;;;20746017;28;20129;-75
2022/05/17 06:08:21;;;;;;;4.03;2.90;;;15.60;99.90;;;;;;20727425;28;20060;-75
2022/05/17 06:18:22;;;;;;;11.43;3.90;;;15.70;99.90;;;;;;20744951;28;20038;-75
2022/05/17 06:28:23;;;;;;;7.63;4.37;;;15.80;99.90;;;;;;20744125;28;20037;-75
2022/05/17 06:38:24;;;;;;;7.10;3.53;;;16.10;99.90;;;;;;20743527;28;20042;-74
2022/05/17 06:48:24;;;;;;;6.37;3.43;;;16.30;99.90;;;;;;20743109;28;20030;-75
2022/05/17 06:58:28;;;;;;;5.33;3.33;;;16.70;99.90;;;;;;20742852;28;20500;-75
2022/05/17 07:08:29;;;;;;;14.18;3.28;;;17.80;99.90;;;;;;20742685;28;20034;-75
2022/05/17 07:18:30;;;;;;;6.30;3.33;;;18.90;99.90;;;;;;20743651;28;20109;-75
2022/05/17 07:28:31;;;;;;;8.60;3.17;;;18.80;99.90;;;;;;20757676;28;20034;-76
2022/05/17 07:38:32;;;;;;;9.00;3.37;;;19.10;99.90;;;;;;20758177;28;20464;-76
2022/05/17 07:48:34;;;;;;;;;;;19.60;99.90;;;;;;20756513;28;20033;-76
2022/05/17 07:58:35;;;;;;;7.23;3.80;;;20.40;99.90;;;;;;20756312;28;20326;-75
2022/05/17 08:08:36;;;;;;;10.17;3.87;;;20.70;99.90;;;;;;20755851;28;20034;-76
2022/05/17 08:18:37;;;;;;;10.93;4.67;;;21.30;99.90;;;;;;20754591;28;20026;-75
2022/05/17 08:28:38;;;;;;;9.07;3.53;;;21.80;99.90;;;;;;20753107;28;20036;-76
2022/05/17 08:38:47;;;;;;;9.10;3.47;;;22.00;99.90;;;;;;20752829;28;20121;-76
2022/05/17 08:48:58;;;;;;;7.97;3.40;;;22.40;99.90;;;;;;20752469;28;20033;-76
2022/05/17 08:59:01;;;;;;;5.53;3.22;;;23.80;99.90;;;;;;20834509;22;20502;-77
2022/05/17 09:09:12;;;;;;;7.20;3.67;;;23.50;99.90;;;;;;20922947;28;20055;-77
2022/05/17 09:19:15;;;;;;;6.27;2.60;;;25.10;99.90;;;;;;20921340;28;20025;-77
2022/05/17 09:29:18;;;;;;;8.13;2.65;;;25.20;99.90;;;;;;20921271;28;20033;-77
2022/05/17 09:39:21;;;;;;;9.85;2.67;;;25.00;99.90;;;;;;20920954;28;20111;-77
2022/05/17 10:00:13;;;;;;;6.28;2.92;;;25.70;99.90;;;;;;20874801;28;20037;-78
2022/05/17 10:10:47;;;;;;;6.47;2.40;;;25.80;99.90;;;;;;20836599;28;20069;-77
2022/05/17 10:20:54;;;;;;;7.38;2.50;;;25.50;99.90;;;;;;20837596;28;20095;-77
2022/05/17 10:30:57;;;;;;;10.13;2.35;;;26.70;99.90;;;;;;20818004;28;20615;-77
2022/05/17 10:40:58;;;;;;;8.00;1.77;;;27.00;99.90;;;;;;20834358;28;20029;-78
2022/05/17 10:50:59;;;;;;;6.88;2.05;;;28.00;99.90;;;;;;20834091;28;20056;-78
2022/05/17 11:01:21;;;;;;;5.70;1.70;;;28.70;99.90;;;;;;20827689;28;20109;-78
2022/05/17 11:11:55;;;;;;;5.18;1.98;;;27.60;99.90;;;;;;20841022;28;20295;-78
2022/05/17 11:22:35;;;;;;;5.65;1.80;;;27.90;99.90;;;;;;20805058;28;20411;-78
2022/05/17 11:32:42;;;;;;;6.63;1.80;;;29.20;99.90;;;;;;20805485;28;20025;-77
2022/05/17 11:53:24;;;;;;;8.13;2.03;;;28.00;99.90;;;;;;20837650;28;20041;-77
2022/05/17 12:03:49;;;;;;;4.77;1.87;;;27.30;99.90;;;;;;20836568;28;20511;-77
2022/05/17 12:14:01;;;;;;;4.05;1.38;;;27.80;99.90;;;;;;20837754;28;20342;-77
2022/05/17 12:24:24;;;;;;;6.05;1.65;;;29.40;99.90;;;;;;20836053;28;20076;-78
2022/05/17 12:34:26;;;;;;;6.25;1.88;;;28.80;99.90;;;;;;20818501;28;20083;-77
2022/05/17 12:44:26;;;;;;;8.07;1.58;;;29.80;99.90;;;;;;20837150;28;20025;-77
2022/05/17 12:54:32;;;;;;;2.08;1.23;;;30.10;99.90;;;;;;20833320;28;20032;-77
2022/05/17 13:04:39;;;;;;;3.22;1.33;;;29.50;99.90;;;;;;20831851;28;20021;-76
2022/05/17 13:14:40;;;;;;;4.75;1.55;;;28.60;99.90;;;;;;20813733;28;20065;-78
2022/05/17 13:24:44;;;;;;;2.17;1.30;;;29.20;99.90;;;;;;20832170;28;20037;-77
2022/05/17 13:34:45;;;;;;;4.55;1.40;;;29.90;99.90;;;;;;20814136;28;20407;-78
2022/05/17 13:44:55;;;;;;;4.15;1.65;;;30.10;99.90;;;;;;20840201;28;20031;-77
2022/05/17 13:55:01;;;;;;;3.55;1.38;;;28.50;99.90;;;;;;20829089;28;20100;-77
2022/05/17 14:05:16;;;;;;;6.30;1.77;;;29.20;99.90;;;;;;20842898;28;20052;-78
2022/05/17 14:15:17;;;;;;;4.55;1.50;;;28.60;99.90;;;;;;20826451;28;20043;-77
2022/05/17 14:25:18;;;;;;;4.50;1.50;;;29.90;99.90;;;;;;20811760;28;20555;-77
2022/05/17 14:35:22;;;;;;;3.60;1.30;;;29.40;99.90;;;;;;20806345;28;20399;-77
2022/05/17 14:45:23;;;;;;;5.60;1.60;;;28.90;99.90;;;;;;20808418;28;20320;-78
2022/05/17 14:55:27;;;;;;;6.55;1.50;;;29.00;99.90;;;;;;20821936;22;20773;-73
2022/05/17 15:05:31;;;;;;;6.22;1.50;;;29.00;99.90;;;;;;20857762;28;20139;-73
2022/05/17 15:15:32;;;;;;;7.55;1.90;;;28.90;99.90;;;;;;20804347;28;20399;-73
2022/05/17 15:25:33;;;;;;;13.27;2.05;;;28.20;99.90;;;;;;20803832;28;20068;-73
2022/05/17 15:35:36;;;;;;;5.63;1.40;;;28.70;99.90;;;;;;20803032;28;20037;-73
2022/05/17 15:45:37;;;;;;;3.13;1.20;;;27.70;99.90;;;;;;20795135;28;20076;-73
2022/05/17 15:55:38;;;;;;;3.45;1.45;;;28.20;99.90;;;;;;20799062;28;20128;-74
2022/05/17 16:05:39;;;;;;;4.73;1.40;;;27.50;99.90;;;;;;20815835;28;20108;-73
2022/05/17 16:15:47;;;;;;;6.82;1.45;;;26.50;99.90;;;;;;20816364;28;20287;-73
2022/05/17 16:25:48;;;;;;;8.13;1.50;;;26.70;99.90;;;;;;20795683;28;20117;-74
2022/05/17 16:35:49;;;;;;;7.30;1.60;;;26.50;99.90;;;;;;20815444;28;20029;-74
2022/05/17 16:45:50;;;;;;;4.03;1.40;;;25.90;99.90;;;;;;20814315;28;20499;-74
2022/05/17 16:55:52;;;;;;;3.10;1.55;;;25.70;99.90;;;;;;20812560;28;20107;-74
2022/05/17 17:05:53;;;;;;;5.65;1.55;;;26.20;99.90;;;;;;20811109;28;20057;-74
2022/05/17 17:15:54;;;;;;;2.00;1.45;;;26.20;99.90;;;;;;20793008;28;20068;-74
2022/05/17 17:25:54;;;;;;;5.03;2.08;;;25.70;99.90;;;;;;20811351;28;20033;-74
2022/05/17 17:46:16;;;;;;;5.97;2.00;;;24.90;99.90;;;;;;20772130;28;20034;-74
2022/05/17 17:56:20;;;;;;;;;;;24.60;99.90;;;;;;20801626;28;20033;-74
2022/05/17 18:06:21;;;;;;;4.07;1.85;;;24.50;99.90;;;;;;20809111;28;20362;-74
2022/05/17 18:16:41;;;;;;;4.20;1.67;;;23.90;99.90;;;;;;20809398;28;20330;-74
2022/05/17 18:26:49;;;;;;;6.57;1.85;;;23.70;99.90;;;;;;20793089;28;20061;-74
2022/05/17 18:36:50;;;;;;;4.63;2.20;;;23.20;99.90;;;;;;20825923;28;20025;-74
2022/05/17 18:46:51;;;;;;;11.40;2.30;;;22.60;99.90;;;;;;20808245;28;20037;-73
2022/05/17 18:56:53;;;;;;;6.50;2.33;;;22.00;99.90;;;;;;20826436;28;20038;-72
2022/05/17 19:06:53;;;;;;;;;;;21.50;99.90;;;;;;20831277;28;20032;-72
2022/05/17 19:17:00;;;;;;;5.87;2.50;;;21.30;99.90;;;;;;20830879;28;19939;-72
2022/05/17 19:27:02;;;;;;;6.45;2.10;;;21.00;99.90;;;;;;20840848;28;20038;-72
2022/05/17 19:47:29;;;;;;;8.10;2.78;;;20.50;99.90;;;;;;20838317;28;20041;-72
2022/05/17 19:57:30;;;;;;;3.95;1.92;;;20.50;99.90;;;;;;20837435;28;20172;-72
2022/05/17 20:07:31;;;;;;;8.40;2.63;;;20.40;99.90;;;;;;20836905;28;20510;-72
2022/05/17 20:17:32;;;;;;;4.20;2.60;;;19.80;99.90;;;;;;20836240;28;20037;-72
2022/05/17 20:27:33;;;;;;;4.27;2.47;;;19.50;99.90;;;;;;20839758;28;20033;-73
2022/05/17 20:37:35;;;;;;;5.43;2.27;;;19.40;99.90;;;;;;20819405;28;20028;-73
2022/05/17 20:57:55;;;;;;;8.68;2.78;;;19.20;99.90;;;;;;20854115;22;20033;-77
2022/05/17 21:07:56;;;;;;;7.03;2.30;;;18.90;99.90;;;;;;20831841;28;20400;-76
2022/05/17 21:18:06;;;;;;;5.53;2.27;;;18.80;99.90;;;;;;20797369;28;20438;-75
2022/05/17 21:28:11;;;;;;;9.65;3.50;;;19.00;99.90;;;;;;20804770;28;20547;-76
2022/05/17 21:38:15;;;;;;;4.90;2.50;;;18.50;99.90;;;;;;20790708;28;20037;-76
2022/05/17 21:48:17;;;;;;;6.85;2.60;;;18.60;99.90;;;;;;20804855;28;20064;-75
2022/05/17 21:58:24;;;;;;;8.00;2.65;;;18.10;99.90;;;;;;20809172;28;20041;-76
2022/05/17 22:08:26;;;;;;;4.53;2.53;;;18.10;99.90;;;;;;20825520;28;20033;-75
2022/05/17 22:18:27;;;;;;;8.07;2.92;;;18.20;99.90;;;;;;20825488;28;20070;-75
2022/05/17 22:28:28;;;;;;;5.37;2.87;;;18.10;99.90;;;;;;20826161;28;20112;-76
2022/05/17 22:38:29;;;;;;;4.90;2.90;;;18.10;99.90;;;;;;20825637;28;20036;-75
2022/05/17 22:48:30;;;;;;;5.40;2.50;;;17.90;99.90;;;;;;20824558;28;20075;-75
2022/05/17 22:58:31;;;;;;;5.78;2.63;;;17.60;99.90;;;;;;20806928;28;20427;-75
2022/05/17 23:08:32;;;;;;;6.57;2.83;;;17.40;99.90;;;;;;20824241;28;20064;-75
2022/05/17 23:18:34;;;;;;;5.93;2.47;;;17.40;99.90;;;;;;20823912;28;20080;-75
2022/05/17 23:28:36;;;;;;;4.35;2.95;;;17.30;99.90;;;;;;20823418;28;20030;-75
2022/05/17 23:38:37;;;;;;;4.80;2.75;;;17.00;99.90;;;;;;20821626;28;20034;-74
2022/05/17 23:48:38;;;;;;;3.30;2.35;;;16.90;99.90;;;;;;20822534;28;20037;-75
2022/05/17 23:58:39;;;;;;;5.97;2.80;;;16.80;99.90;;;;;;20822267;28;20037;-75
